LIVE FLIGHTS

CallsignPilotDepartureArrivalFlight stageAircraft type% CompletedPending NM

 WELCOME TO BirgenAir Virtual Airlines

 STATISTICS

Pilots 31
Aircraft in fleet 0
Routes 0
Total hours: 4492.02
Flights total 4699
Flights Regular 127
Flights Charter 4572
% Flights Regular 2.70 %

 IVAO

 LATEST FLIGHTS

CallsignPilotDepartureArrivalDateFlight Time
BGN003Bülent ÇAĞLAR  LTBA  LTAC 2019-02-23 0.79
BGN156Serdar Kesenci  EDDF  LTBA 2019-02-23 2.48
BGN262Can Uyanık  LGAV  OLBA 2019-02-22 1.68
BGN557Semih İspiroğlu  LKPR  EGLL 2019-02-22 1.55
BGN156Serdar Kesenci  LTAU  LTBA 2019-02-22 1.01

 Active Runways & Weather of LTBA

Take Off:

35R-L


Landing:

05


LTBA 231620Z 01019G30KT 2500 -SN BKN008 OVC018 01/M01 Q1030 RESN BECMG TL1650 4000

 NEWEST PILOTS

 FUTURE EVENTS

EventDate

  Facebook

 TOP 5 PILOTS BY FLIGHTS

CallsignPilotFlights
BGN003Bülent ÇAĞLAR560
BGN001Umut Keskin461
BGN974Turgut Uyanık259
BGN005Ceyhun Özbesler257
BGN002Murat Türkarslan248

 News

TitleDate



Copyright © 2011 - 2018 BirgenAir Virtual Airlines. All rights reserved. Developed by Goktug Unver